Time;durP1;ratioP1;P1;durP2;ratioP2;P2;SDS_P1;SDS_P2;PMS_P1;PMS_P2;Temp;Humidity;BMP_temperature;BMP_pressure;BME280_temperature;BME280_humidity;BME280_pressure;Samples;Min_cycle;Max_cycle;Signal;HPM_P1;HPM_P2
2023/07/14 00:01:47;;;;;;;3.67;1.25;;;;;;;17.92;72.97;101812.16;4974799;28;101135;-29
2023/07/14 00:04:16;;;;;;;5.20;1.50;;;;;;;17.95;73.05;101815.56;4976110;28;97753;-29
2023/07/14 00:06:44;;;;;;;2.33;0.90;;;;;;;17.86;73.20;101804.44;4976299;28;96472;-28
2023/07/14 00:09:22;;;;;;;3.63;1.10;;;;;;;17.90;72.44;101808.66;4975178;28;96918;-27
2023/07/14 00:11:48;;;;;;;2.03;0.98;;;;;;;17.90;73.11;101806.81;4974429;28;100836;-28
2023/07/14 00:14:14;;;;;;;2.85;1.10;;;;;;;17.85;72.92;101802.66;4974549;28;99378;-27
2023/07/14 00:16:40;;;;;;;4.60;1.10;;;;;;;17.84;73.05;101801.78;4974300;28;96758;-27
2023/07/14 00:19:13;;;;;;;2.13;0.82;;;;;;;17.78;72.81;101796.75;4976048;28;96825;-27
2023/07/14 00:21:39;;;;;;;2.90;1.00;;;;;;;17.74;72.90;101787.91;4974402;28;101134;-28
2023/07/14 00:24:11;;;;;;;3.58;0.77;;;;;;;17.76;72.29;101798.75;4975929;28;97461;-27
2023/07/14 00:26:37;;;;;;;4.05;1.00;;;;;;;17.80;72.94;101792.03;4976131;28;96602;-27
2023/07/14 00:29:25;;;;;;;1.38;0.73;;;;;;;17.75;72.53;101791.50;4976235;28;96763;-27
2023/07/14 00:31:50;;;;;;;2.15;1.15;;;;;;;17.67;72.89;101778.41;4974251;28;101378;-27
2023/07/14 00:34:15;;;;;;;3.25;1.05;;;;;;;17.69;72.98;101786.50;4976003;28;97794;-27
2023/07/14 00:36:41;;;;;;;2.08;0.77;;;;;;;17.73;72.88;101788.91;4975814;28;96617;-28
2023/07/14 00:39:06;;;;;;;2.33;0.95;;;;;;;17.77;72.83;101790.38;4975791;28;96800;-27
2023/07/14 00:41:32;;;;;;;5.75;1.20;;;;;;;17.70;72.54;101785.50;4975155;28;97887;-27
2023/07/14 00:43:57;;;;;;;1.80;1.00;;;;;;;17.67;72.58;101789.34;4975304;28;98667;-28
2023/07/14 00:46:26;;;;;;;3.15;1.20;;;;;;;17.69;73.26;101790.13;4975844;28;96588;-27
2023/07/14 00:48:55;;;;;;;5.40;0.75;;;;;;;17.65;72.93;101785.84;4973863;28;96803;-28
2023/07/14 00:51:23;;;;;;;1.52;0.80;;;;;;;17.65;72.89;101774.03;4973791;28;100723;-27
2023/07/14 00:53:48;;;;;;;1.70;0.88;;;;;;;17.66;72.94;101784.84;4973825;28;100954;-29
2023/07/14 00:56:14;;;;;;;3.70;1.33;;;;;;;17.68;72.94;101787.50;4975532;28;96665;-28
2023/07/14 00:58:42;;;;;;;2.63;1.30;;;;;;;17.67;73.57;101781.13;4975923;28;97087;-27
2023/07/14 01:01:28;;;;;;;2.15;1.10;;;;;;;17.65;72.83;101782.25;4973799;28;101265;-27
2023/07/14 01:03:55;;;;;;;1.33;0.60;;;;;;;17.58;72.68;101773.63;4975003;28;99651;-27
2023/07/14 01:06:27;;;;;;;1.70;1.00;;;;;;;17.59;73.20;101768.03;4973766;28;96742;-27
2023/07/14 01:09:10;;;;;;;1.55;1.00;;;;;;;17.65;73.41;101780.38;4974099;28;97038;-27
2023/07/14 01:11:54;;;;;;;3.83;1.15;;;;;;;17.65;73.65;101776.78;4974455;28;97903;-27
2023/07/14 01:14:34;;;;;;;1.75;0.95;;;;;;;17.63;73.18;101765.91;4973718;28;99432;-27
2023/07/14 01:17:01;;;;;;;2.92;1.02;;;;;;;17.55;73.27;101761.03;4975347;28;96933;-27
2023/07/14 01:19:36;;;;;;;1.05;0.63;;;;;;;17.54;73.10;101756.56;4974009;28;96841;-27
2023/07/14 01:22:05;;;;;;;2.75;1.00;;;;;;;17.51;73.09;101765.00;4973623;28;100903;-28
2023/07/14 01:24:38;;;;;;;1.15;0.65;;;;;;;17.51;73.33;101769.59;4975270;28;97859;-27
2023/07/14 01:27:08;;;;;;;2.67;1.05;;;;;;;17.50;72.94;101765.13;4974008;28;96671;-27
2023/07/14 01:29:35;;;;;;;2.78;1.17;;;;;;;17.52;72.99;101765.84;4974044;28;96869;-29
2023/07/14 01:32:01;;;;;;;2.70;1.10;;;;;;;17.44;72.97;101758.22;4972917;28;101390;-27
2023/07/14 01:34:28;;;;;;;1.42;0.82;;;;;;;17.36;72.85;101750.59;4973477;28;100859;-27
2023/07/14 01:36:58;;;;;;;5.95;1.10;;;;;;;17.41;73.17;101766.69;4973337;28;96628;-28
2023/07/14 01:39:25;;;;;;;3.15;0.98;;;;;;;17.36;72.91;101760.69;4973897;28;96696;-28
2023/07/14 01:41:51;;;;;;;2.15;0.82;;;;;;;17.33;73.35;101763.66;4973327;28;101233;-27
2023/07/14 01:44:19;;;;;;;2.35;0.85;;;;;;;17.33;73.00;101760.94;4973268;28;100714;-28
2023/07/14 01:46:46;;;;;;;1.63;0.90;;;;;;;17.27;73.21;101747.69;4973406;28;96514;-28
2023/07/14 01:49:27;;;;;;;4.22;1.00;;;;;;;17.33;73.35;101761.81;4973363;28;96985;-28
2023/07/14 01:51:56;;;;;;;2.65;0.90;;;;;;;17.26;72.97;101757.78;4974621;28;97444;-27
2023/07/14 01:54:40;;;;;;;1.27;0.65;;;;;;;17.25;73.38;101756.00;4974493;28;99811;-27
2023/07/14 01:57:12;;;;;;;1.98;0.90;;;;;;;17.17;72.97;101753.00;4973169;28;96621;-28
2023/07/14 01:59:43;;;;;;;2.67;0.85;;;;;;;17.13;73.31;101748.72;4974818;28;96745;-27
2023/07/14 02:02:15;;;;;;;1.95;0.90;;;;;;;17.16;73.49;101748.47;4973081;28;101526;-29
2023/07/14 02:04:41;;;;;;;;;;;;;;;17.14;73.25;101758.69;4973581;28;101047;-27
2023/07/14 02:07:12;;;;;;;1.35;0.77;;;;;;;17.13;73.29;101748.72;4973583;28;96727;-27
2023/07/14 02:09:38;;;;;;;2.70;1.00;;;;;;;17.10;72.84;101757.16;4973464;28;96862;-27
2023/07/14 02:12:05;;;;;;;1.65;0.80;;;;;;;17.08;73.60;101759.16;4972853;28;101363;-27
2023/07/14 02:15:11;;;;;;;4.05;1.02;;;;;;;17.03;73.79;101756.75;4973400;28;101746;-27
2023/07/14 02:17:37;;;;;;;1.90;0.98;;;;;;;16.96;73.33;101744.50;4974607;28;96422;-27
2023/07/14 02:20:14;;;;;;;1.33;0.88;;;;;;;17.02;73.35;101743.16;4973381;28;96908;-27
2023/07/14 02:22:40;;;;;;;1.92;0.90;;;;;;;17.01;73.38;101733.22;4976209;28;99307;-27
2023/07/14 02:25:11;;;;;;;2.95;0.82;;;;;;;16.99;73.18;101738.78;4976250;28;101073;-27
2023/07/14 02:27:37;;;;;;;2.13;1.03;;;;;;;16.93;73.01;101739.28;4976741;28;96679;-29
2023/07/14 02:30:13;;;;;;;2.95;0.95;;;;;;;16.93;73.15;101739.28;4977798;28;96877;-27
2023/07/14 02:32:44;;;;;;;3.92;0.95;;;;;;;16.90;73.23;101736.72;4976028;28;102365;-27
2023/07/14 02:35:20;;;;;;;3.42;0.90;;;;;;;16.84;72.97;101729.88;4975837;28;101271;-27
2023/07/14 02:38:05;;;;;;;2.65;0.95;;;;;;;16.85;72.87;101728.91;4978117;28;96587;-27
2023/07/14 02:40:36;;;;;;;3.67;1.20;;;;;;;16.81;73.38;101730.09;4978011;28;96652;-27
2023/07/14 02:43:10;;;;;;;6.37;0.80;;;;;;;16.83;73.39;101739.06;4976214;28;101238;-27
2023/07/14 02:45:42;;;;;;;0.40;0.40;;;;;;;16.69;73.28;101718.16;4975592;28;101306;-28
2023/07/14 02:48:13;;;;;;;2.88;0.95;;;;;;;16.73;73.50;101732.47;4975322;28;96608;-27
2023/07/14 02:50:38;;;;;;;3.08;1.25;;;;;;;16.70;73.42;101740.91;4976357;28;96860;-27
2023/07/14 02:53:04;;;;;;;3.15;1.13;;;;;;;16.66;73.45;101731.19;4977352;28;97860;-28
2023/07/14 02:55:29;;;;;;;3.13;1.30;;;;;;;16.64;74.17;101730.44;4977034;28;99088;-27
2023/07/14 02:57:55;;;;;;;2.20;0.95;;;;;;;16.63;74.17;101728.69;4977803;28;96601;-27
2023/07/14 03:00:20;;;;;;;1.80;0.95;;;;;;;16.68;73.77;101732.81;4977489;28;96775;-27
2023/07/14 03:02:45;;;;;;;4.20;0.90;;;;;;;16.63;73.54;101721.34;4977306;28;97901;-27
2023/07/14 03:05:14;;;;;;;2.55;1.10;;;;;;;16.65;74.09;101724.84;4977596;28;97216;-27
2023/07/14 03:07:40;;;;;;;2.33;0.82;;;;;;;16.66;73.54;101734.81;4977380;28;96497;-27
2023/07/14 03:10:08;;;;;;;3.47;0.90;;;;;;;16.63;73.91;101726.81;4977410;28;96696;-27
2023/07/14 03:12:34;;;;;;;4.60;1.10;;;;;;;16.62;73.90;101719.59;4976333;28;97912;-28
2023/07/14 03:14:59;;;;;;;3.70;0.75;;;;;;;16.58;73.82;101714.47;4977138;28;97897;-28
2023/07/14 03:17:25;;;;;;;4.55;1.10;;;;;;;16.52;74.34;101713.94;4977237;28;96700;-27
2023/07/14 03:19:50;;;;;;;3.83;1.08;;;;;;;16.59;73.98;101713.47;4976088;28;96858;-28
2023/07/14 03:22:16;;;;;;;4.20;1.38;;;;;;;16.60;74.22;101716.09;4976705;28;100007;-27
2023/07/14 03:24:41;;;;;;;2.67;0.95;;;;;;;16.51;74.50;101720.38;4976933;28;97803;-27
2023/07/14 03:27:07;;;;;;;1.58;0.88;;;;;;;16.50;74.08;101718.63;4977162;28;96564;-28
2023/07/14 03:29:32;;;;;;;1.52;0.80;;;;;;;16.46;75.08;101708.03;4977216;28;96845;-27
2023/07/14 03:31:57;;;;;;;3.97;1.10;;;;;;;16.52;74.50;101713.06;4976912;28;97256;-27
2023/07/14 03:34:23;;;;;;;3.00;1.13;;;;;;;16.51;74.46;101717.63;4975787;28;99037;-27
2023/07/14 03:36:49;;;;;;;1.88;0.90;;;;;;;16.52;75.09;101718.53;4976319;28;96505;-27
2023/07/14 03:39:24;;;;;;;4.70;1.35;;;;;;;16.44;75.41;101715.47;4975339;28;96688;-27
2023/07/14 03:41:51;;;;;;;3.03;1.35;;;;;;;16.50;74.82;101721.38;4976252;28;99332;-27
2023/07/14 03:44:17;;;;;;;3.35;1.30;;;;;;;16.41;75.22;101712.97;4974955;28;101203;-28
2023/07/14 03:46:43;;;;;;;4.55;1.20;;;;;;;16.43;75.18;101719.19;4975130;28;96839;-28
2023/07/14 03:49:08;;;;;;;1.63;0.88;;;;;;;16.45;75.94;101718.09;4976239;28;96630;-28
2023/07/14 03:51:34;;;;;;;2.75;1.45;;;;;;;16.47;74.88;101713.41;4976144;28;98883;-28
2023/07/14 03:54:00;;;;;;;1.98;0.90;;;;;;;16.45;76.13;101712.63;4976620;28;99195;-29
2023/07/14 03:56:26;;;;;;;3.85;1.25;;;;;;;16.45;75.25;101714.50;4976476;28;96728;-29
2023/07/14 03:58:52;;;;;;;3.42;1.25;;;;;;;16.41;76.55;101704.75;4975230;28;97161;-33
2023/07/14 04:01:17;;;;;;;4.15;1.40;;;;;;;16.41;75.62;101705.63;4975852;28;98007;-28
2023/07/14 04:03:43;;;;;;;3.92;1.45;;;;;;;16.40;75.85;101703.88;4976294;28;97860;-27
2023/07/14 04:06:08;;;;;;;1.92;1.10;;;;;;;16.47;75.67;101710.66;4976242;28;96567;-27
2023/07/14 04:08:38;;;;;;;3.58;1.38;;;;;;;16.40;75.92;101700.25;4976511;28;96776;-27
2023/07/14 04:11:04;;;;;;;4.10;1.52;;;;;;;16.35;76.05;101696.03;4958096;28;101025;-27
2023/07/14 04:13:30;;;;;;;6.28;1.88;;;;;;;16.36;76.34;101705.09;4974649;28;101135;-27
2023/07/14 04:15:57;;;;;;;2.63;1.48;;;;;;;16.37;76.18;101695.88;4976230;28;96664;-29
2023/07/14 04:18:23;;;;;;;5.78;1.63;;;;;;;16.42;76.18;101704.66;4975148;28;96800;-27
2023/07/14 04:20:49;;;;;;;3.72;1.63;;;;;;;16.36;76.32;101696.88;4974554;28;101326;-28
2023/07/14 04:23:17;;;;;;;7.07;1.73;;;;;;;16.26;76.38;101690.34;4974550;28;99821;-27
2023/07/14 04:25:43;;;;;;;7.43;1.85;;;;;;;16.30;76.86;101700.94;4973922;28;96670;-27
2023/07/14 04:28:08;;;;;;;4.55;2.10;;;;;;;16.30;76.29;101687.28;4974543;28;97802;-28
2023/07/14 04:30:34;;;;;;;3.35;1.58;;;;;;;16.33;76.74;101697.13;4975833;28;98001;-27
2023/07/14 04:32:59;;;;;;;3.88;2.08;;;;;;;16.35;76.50;101706.06;4975573;28;97840;-27
2023/07/14 04:35:25;;;;;;;4.65;1.77;;;;;;;16.30;77.04;101695.47;4975634;28;96863;-27
2023/07/14 04:37:50;;;;;;;4.85;1.65;;;;;;;16.33;77.25;101702.59;4975745;28;97680;-27
2023/07/14 04:40:16;;;;;;;5.05;1.83;;;;;;;16.32;77.69;101707.16;4975624;28;98045;-28
2023/07/14 04:42:42;;;;;;;7.72;2.17;;;;;;;16.26;77.14;101687.59;4974536;28;101019;-28
2023/07/14 04:45:08;;;;;;;4.40;1.88;;;;;;;16.31;76.94;101697.22;4975046;28;96439;-31
2023/07/14 04:47:34;;;;;;;4.68;1.70;;;;;;;16.31;76.86;101688.16;4975877;28;96782;-27
2023/07/14 04:49:59;;;;;;;3.88;1.75;;;;;;;16.27;77.00;101690.22;4974900;28;97976;-28
2023/07/14 04:52:25;;;;;;;3.55;1.52;;;;;;;16.32;77.56;101688.00;4975259;28;98842;-27
2023/07/14 04:54:50;;;;;;;4.05;1.65;;;;;;;16.29;77.56;101674.56;4975345;28;96750;-28
2023/07/14 04:57:15;;;;;;;3.75;1.75;;;;;;;16.34;77.34;101691.50;4975619;28;96728;-27
2023/07/14 04:59:42;;;;;;;5.82;1.85;;;;;;;16.38;77.93;101691.31;4975426;28;97347;-27
2023/07/14 05:02:08;;;;;;;4.00;1.80;;;;;;;16.40;77.05;101679.28;4975299;28;99394;-27
2023/07/14 05:04:40;;;;;;;5.65;2.00;;;;;;;16.44;77.58;101678.03;4975569;28;96624;-27
2023/07/14 05:07:06;;;;;;;;;;;;;;;16.40;77.68;101682.00;4974984;28;96743;-28
2023/07/14 05:09:34;;;;;;;4.18;1.65;;;;;;;16.33;77.74;101675.25;4973857;28;101510;-27
2023/07/14 05:12:00;;;;;;;4.43;1.67;;;;;;;16.41;76.78;101667.34;4973611;28;100596;-28
2023/07/14 05:14:28;;;;;;;5.28;1.52;;;;;;;16.46;77.28;101681.53;4974946;28;96586;-27
2023/07/14 05:16:54;;;;;;;4.07;1.63;;;;;;;16.46;77.08;101672.47;4973903;28;96824;-28
2023/07/14 05:19:20;;;;;;;4.90;1.60;;;;;;;16.49;76.93;101677.72;4975136;28;97859;-27
2023/07/14 05:21:45;;;;;;;3.08;1.63;;;;;;;16.52;77.85;101681.13;4974942;28;97822;-28
2023/07/14 05:24:11;;;;;;;5.30;1.98;;;;;;;16.49;78.51;101675.88;4975487;28;96503;-27
2023/07/14 05:26:38;;;;;;;3.13;1.67;;;;;;;16.54;77.83;101667.31;4975121;28;96835;-27
2023/07/14 05:29:05;;;;;;;5.40;2.00;;;;;;;16.59;77.84;101670.59;4973627;28;101273;-27
2023/07/14 05:31:32;;;;;;;3.63;1.85;;;;;;;16.54;77.83;101667.31;4973738;28;100971;-27
2023/07/14 05:33:58;;;;;;;3.88;1.83;;;;;;;16.64;77.60;101664.78;4973741;28;96579;-27
2023/07/14 05:36:23;;;;;;;4.82;1.83;;;;;;;16.73;77.17;101664.06;4974775;28;96762;-28
2023/07/14 05:38:49;;;;;;;5.85;1.70;;;;;;;16.80;77.27;101676.34;4972953;28;99487;-28
2023/07/14 05:41:14;;;;;;;3.88;1.90;;;;;;;16.84;77.52;101677.88;4974947;28;97928;-27
2023/07/14 05:43:40;;;;;;;3.47;1.80;;;;;;;16.92;76.59;101667.25;4975212;28;96672;-28
2023/07/14 05:46:05;;;;;;;4.47;1.95;;;;;;;16.94;78.08;101675.31;4974721;28;96829;-27
2023/07/14 05:48:31;;;;;;;3.40;1.77;;;;;;;16.97;77.53;101675.06;4974532;28;97861;-27
2023/07/14 05:50:57;;;;;;;3.35;1.88;;;;;;;17.00;78.70;101682.22;4972878;28;99380;-27
2023/07/14 05:53:22;;;;;;;6.72;2.17;;;;;;;17.09;77.31;101686.97;4974647;28;96608;-27
2023/07/14 05:55:48;;;;;;;6.05;1.92;;;;;;;17.25;77.58;101682.06;4974656;28;96838;-28
2023/07/14 05:58:13;;;;;;;4.35;2.15;;;;;;;17.32;76.93;101668.78;4973112;28;99617;-31
2023/07/14 06:00:39;;;;;;;4.35;2.13;;;;;;;17.26;76.75;101669.28;4974426;28;98743;-27
2023/07/14 06:03:06;;;;;;;4.07;2.10;;;;;;;17.20;78.24;101670.59;4974421;28;96470;-28
2023/07/14 06:05:33;;;;;;;4.22;2.15;;;;;;;17.18;77.21;101661.63;4973162;28;96859;-28
2023/07/14 06:07:58;;;;;;;8.40;2.33;;;;;;;17.31;77.66;101658.84;4972967;28;101133;-28
2023/07/14 06:10:24;;;;;;;7.65;2.55;;;;;;;17.44;76.79;101664.22;4974337;28;99044;-28
2023/07/14 06:12:49;;;;;;;3.72;2.10;;;;;;;17.55;77.27;101669.75;4974510;28;96525;-28
2023/07/14 06:15:15;;;;;;;4.30;2.10;;;;;;;17.56;76.34;101663.28;4974983;28;96740;-28
2023/07/14 06:17:40;;;;;;;7.75;2.42;;;;;;;17.71;76.65;101652.97;4974182;28;99360;-27
2023/07/14 06:20:07;;;;;;;6.18;2.55;;;;;;;17.92;76.26;101653.16;4974572;28;99263;-27
2023/07/14 06:22:32;;;;;;;7.00;2.17;;;;;;;18.06;76.01;101657.56;4973310;28;96617;-28
2023/07/14 06:24:58;;;;;;;5.30;2.53;;;;;;;18.04;75.66;101647.59;4974467;28;96825;-27
2023/07/14 06:27:24;;;;;;;7.70;2.42;;;;;;;18.04;75.52;101649.44;4973826;28;97358;-28
2023/07/14 06:29:50;;;;;;;10.95;2.60;;;;;;;17.90;75.69;101645.09;4972942;28;101099;-28
2023/07/14 06:32:16;;;;;;;4.22;2.17;;;;;;;17.86;76.29;101650.94;4974470;28;96572;-27
2023/07/14 06:34:43;;;;;;;6.95;2.78;;;;;;;18.00;75.52;101647.97;4973933;28;96798;-28
2023/07/14 06:37:08;;;;;;;9.45;2.70;;;;;;;18.11;74.95;101656.19;4972522;28;101079;-28
2023/07/14 06:39:34;;;;;;;4.53;2.33;;;;;;;18.15;74.67;101656.81;4973278;28;97733;-31
2023/07/14 06:41:59;;;;;;;4.03;1.98;;;;;;;18.16;75.29;101650.31;4974364;28;96608;-28
2023/07/14 06:44:25;;;;;;;6.38;3.17;;;;;;;18.14;74.82;101655.94;4975170;28;96790;-27
2023/07/14 06:46:50;;;;;;;4.68;2.67;;;;;;;18.24;74.70;101651.47;4973610;28;99489;-27
2023/07/14 06:49:15;;;;;;;6.03;2.67;;;;;;;18.33;74.69;101655.34;4972956;28;99168;-27
2023/07/14 06:51:41;;;;;;;5.68;2.70;;;;;;;18.36;74.47;101643.25;4973905;28;96504;-28
2023/07/14 06:54:06;;;;;;;8.35;2.88;;;;;;;18.46;74.43;101649.69;4974579;28;96795;-27
2023/07/14 06:56:32;;;;;;;6.82;2.42;;;;;;;18.46;74.42;101636.84;4971958;28;97535;-27
2023/07/14 06:58:57;;;;;;;5.75;2.97;;;;;;;18.64;73.88;101641.84;4971538;28;99226;-31
2023/07/14 07:01:22;;;;;;;5.88;2.47;;;;;;;18.61;73.83;101647.56;4971659;28;97063;-28
2023/07/14 07:03:48;;;;;;;8.63;2.88;;;;;;;18.59;73.95;101642.22;4971649;28;97103;-28
2023/07/14 07:06:17;;;;;;;8.27;3.40;;;;;;;18.53;74.20;101648.19;4971409;28;97330;-29
2023/07/14 07:08:43;;;;;;;7.22;2.45;;;;;;;18.52;74.15;101638.25;4973104;28;97902;-27
2023/07/14 07:11:10;;;;;;;6.22;2.60;;;;;;;18.49;74.15;101630.22;4974761;28;96670;-28
2023/07/14 07:13:35;;;;;;;8.38;2.90;;;;;;;18.52;73.87;101640.97;4977204;28;96895;-28
2023/07/14 07:16:01;;;;;;;6.80;2.92;;;;;;;18.45;73.91;101626.88;4976492;28;99030;-27
2023/07/14 07:18:27;;;;;;;7.22;2.90;;;;;;;18.54;73.91;101632.59;4976843;28;97257;-28
2023/07/14 07:20:52;;;;;;;4.88;2.70;;;;;;;18.57;74.20;101627.75;4977297;28;96655;-28
2023/07/14 07:23:18;;;;;;;5.88;2.72;;;;;;;18.58;73.63;101613.00;4977150;28;96790;-28
2023/07/14 07:25:49;;;;;;;8.73;3.00;;;;;;;18.64;74.63;101623.50;4975415;28;101032;-27
2023/07/14 07:28:14;;;;;;;4.10;2.50;;;;;;;18.71;73.56;101614.72;4976594;28;98955;-29
2023/07/14 07:30:39;;;;;;;7.15;2.17;;;;;;;18.70;73.60;101616.59;4976966;28;96729;-27
2023/07/14 07:33:05;;;;;;;4.30;2.45;;;;;;;18.68;73.67;101621.34;4977169;28;96778;-28
2023/07/14 07:35:30;;;;;;;7.45;2.92;;;;;;;18.64;73.60;101623.50;4976528;28;98027;-28
2023/07/14 07:37:56;;;;;;;4.43;2.45;;;;;;;18.70;74.16;101621.22;4976674;28;97785;-27
2023/07/14 07:40:21;;;;;;;5.82;2.58;;;;;;;18.77;74.16;101620.63;4976343;28;96721;-27
2023/07/14 07:42:46;;;;;;;7.32;2.45;;;;;;;18.93;73.45;101620.22;4976590;28;96860;-27
2023/07/14 07:45:12;;;;;;;6.03;2.42;;;;;;;18.80;73.17;101612.09;4976479;28;97402;-28
2023/07/14 07:47:37;;;;;;;6.45;2.47;;;;;;;18.97;73.04;101607.06;4975724;28;99960;-27
2023/07/14 07:50:04;;;;;;;4.40;2.17;;;;;;;19.09;72.79;101606.91;4975206;28;96802;-28
2023/07/14 07:52:32;;;;;;;5.18;2.35;;;;;;;19.29;72.46;101605.19;4975213;28;96714;-28
2023/07/14 07:54:57;;;;;;;6.10;2.22;;;;;;;19.47;71.59;101608.22;4974953;28;100734;-27
2023/07/14 07:57:23;;;;;;;6.55;2.35;;;;;;;19.62;71.49;101610.63;4976776;28;98354;-30
2023/07/14 07:59:49;;;;;;;4.85;2.22;;;;;;;19.59;70.71;101606.25;4976666;28;96533;-28
2023/07/14 08:02:14;;;;;;;3.78;2.13;;;;;;;19.69;70.80;101606.38;4974901;28;97026;-27
2023/07/14 08:04:40;;;;;;;6.00;1.92;;;;;;;19.59;70.81;101588.91;4975889;28;97448;-27
2023/07/14 08:07:10;;;;;;;4.40;2.40;;;;;;;19.76;70.84;101596.59;4976211;28;97846;-27
2023/07/14 08:09:35;;;;;;;7.28;2.50;;;;;;;20.17;69.91;101604.88;4974937;28;96809;-27
2023/07/14 08:12:02;;;;;;;4.15;1.88;;;;;;;20.26;68.94;101604.03;4976248;28;96843;-28
2023/07/14 08:14:28;;;;;;;7.15;2.58;;;;;;;20.17;69.06;101586.50;4975958;28;98581;-27
2023/07/14 08:16:53;;;;;;;7.13;2.03;;;;;;;20.30;69.37;101598.09;4975683;28;99420;-27
2023/07/14 08:19:19;;;;;;;5.15;1.92;;;;;;;20.23;69.20;101594.16;4976107;28;96769;-27
2023/07/14 08:21:44;;;;;;;4.35;2.00;;;;;;;20.26;69.04;101598.53;4976750;28;96766;-27
2023/07/14 08:24:10;;;;;;;9.18;2.22;;;;;;;20.14;68.35;101608.75;4975120;28;98890;-28
2023/07/14 08:26:37;;;;;;;6.18;2.10;;;;;;;20.12;69.23;101603.41;4975632;28;97739;-27
2023/07/14 08:29:04;;;;;;;3.22;1.85;;;;;;;20.22;68.98;101616.34;4974087;28;96581;-28
2023/07/14 08:31:30;;;;;;;5.35;1.73;;;;;;;20.11;67.32;101606.28;4974401;28;96767;-27
2023/07/14 08:33:56;;;;;;;3.63;1.80;;;;;;;20.06;68.26;101611.34;4975580;28;98940;-28
2023/07/14 08:36:22;;;;;;;6.15;2.10;;;;;;;19.97;67.65;101601.16;4973965;28;100906;-27
2023/07/14 08:38:48;;;;;;;4.10;1.65;;;;;;;20.11;68.35;101609.03;4974579;28;96617;-28
2023/07/14 08:41:33;;;;;;;3.05;1.60;;;;;;;20.15;66.25;101602.25;4975884;28;96857;-27
2023/07/14 08:44:31;;;;;;;3.75;1.35;;;;;;;20.35;65.81;101593.09;4973869;28;100790;-27
2023/07/14 08:47:18;;;;;;;3.45;1.45;;;;;;;20.25;65.41;101581.16;4974353;28;101623;-27
2023/07/14 08:50:01;;;;;;;3.67;1.20;;;;;;;20.37;65.12;101596.53;4973823;28;96855;-28
2023/07/14 08:52:32;;;;;;;4.85;1.85;;;;;;;20.42;64.79;101587.00;4974286;28;96818;-27
2023/07/14 08:55:05;;;;;;;4.43;1.63;;;;;;;20.57;65.23;101593.91;4973687;28;101239;-27
2023/07/14 08:57:39;;;;;;;3.03;1.50;;;;;;;20.66;65.01;101587.50;4974192;28;103099;-27
2023/07/14 09:00:06;;;;;;;3.85;1.50;;;;;;;20.70;64.11;101577.97;4974381;28;96586;-27
2023/07/14 09:02:50;;;;;;;4.05;1.88;;;;;;;20.91;63.35;101576.97;4974016;28;96918;-29
2023/07/14 09:05:27;;;;;;;3.33;1.23;;;;;;;20.95;62.40;101567.41;4973918;28;100866;-27
2023/07/14 09:07:54;;;;;;;3.58;1.40;;;;;;;20.88;63.58;101566.22;4973887;28;100832;-28
2023/07/14 09:10:31;;;;;;;3.10;1.15;;;;;;;20.96;62.09;101564.50;4974124;28;96782;-28
2023/07/14 09:13:11;;;;;;;4.15;1.50;;;;;;;21.17;62.47;101569.00;4975992;28;96512;-27
2023/07/14 09:15:37;;;;;;;3.95;1.52;;;;;;;21.20;61.50;101566.81;4975233;28;98514;-27
2023/07/14 09:18:39;;;;;;;3.45;1.20;;;;;;;21.13;60.24;101567.56;4975301;28;97958;-27
2023/07/14 09:21:32;;;;;;;3.28;1.30;;;;;;;21.07;59.82;101569.03;4975152;28;96912;-27
2023/07/14 09:23:57;;;;;;;4.32;1.25;;;;;;;20.99;61.39;101563.34;4976799;28;96848;-27
2023/07/14 09:26:23;;;;;;;4.95;1.27;;;;;;;21.07;60.96;101580.03;4975144;28;98068;-27
2023/07/14 09:28:50;;;;;;;2.95;1.20;;;;;;;21.12;60.66;101569.44;4973521;28;100842;-28
2023/07/14 09:31:44;;;;;;;2.63;1.15;;;;;;;21.24;59.19;101572.03;4974266;28;96679;-27
2023/07/14 09:34:18;;;;;;;4.90;1.17;;;;;;;21.46;58.36;101569.00;4973856;28;96869;-27
2023/07/14 09:36:46;;;;;;;2.08;0.98;;;;;;;21.56;58.66;101555.19;4974854;28;98480;-28
2023/07/14 09:39:18;;;;;;;3.08;1.40;;;;;;;21.50;58.42;101567.69;4973703;28;100996;-27
2023/07/14 09:41:46;;;;;;;2.45;1.20;;;;;;;21.59;58.09;101571.44;4973669;28;96549;-27
2023/07/14 09:44:12;;;;;;;3.40;1.02;;;;;;;21.48;57.87;101557.84;4975117;28;96541;-27
2023/07/14 09:46:45;;;;;;;4.47;1.42;;;;;;;21.53;58.79;101561.00;4972610;28;101257;-27
2023/07/14 09:49:25;;;;;;;2.28;0.88;;;;;;;21.40;58.42;101550.28;4972736;28;100872;-27
2023/07/14 09:52:14;;;;;;;1.75;1.10;;;;;;;21.46;57.37;101549.69;4975039;28;96565;-27
2023/07/14 09:54:50;;;;;;;2.03;0.75;;;;;;;21.32;58.31;101541.88;4973581;28;96596;-28
2023/07/14 09:57:18;;;;;;;3.40;1.17;;;;;;;21.13;55.88;101548.28;4973233;28;101087;-29
2023/07/14 10:00:11;;;;;;;3.03;1.38;;;;;;;21.04;57.20;101549.13;4973084;28;101423;-29
2023/07/14 10:02:37;;;;;;;2.10;0.93;;;;;;;21.07;58.79;101535.06;4974717;28;96612;-29
2023/07/14 10:05:22;;;;;;;2.45;0.90;;;;;;;20.94;55.64;101533.47;4974952;28;96591;-29
2023/07/14 10:07:48;;;;;;;2.72;1.00;;;;;;;20.81;57.98;101526.50;4971825;28;100934;-27
2023/07/14 10:10:19;;;;;;;1.40;0.77;;;;;;;20.81;57.36;101529.28;4974358;28;99098;-27
2023/07/14 10:12:46;;;;;;;1.67;1.02;;;;;;;20.77;58.16;101526.81;4972895;28;96553;-27
2023/07/14 10:15:32;;;;;;;2.72;1.15;;;;;;;20.70;58.21;101547.69;4973221;28;96772;-27
2023/07/14 10:18:04;;;;;;;3.35;1.35;;;;;;;20.62;58.95;101546.66;4974577;28;98060;-28
2023/07/14 10:20:31;;;;;;;;;;;;;;;20.51;57.57;101553.13;4974765;28;97407;-27
2023/07/14 10:22:58;;;;;;;1.88;1.15;;;;;;;20.44;58.86;101535.44;4973190;28;96589;-27
2023/07/14 10:25:26;;;;;;;3.20;1.33;;;;;;;20.39;58.84;101537.75;4973224;28;96908;-29
2023/07/14 10:28:00;;;;;;;4.68;1.27;;;;;;;20.47;58.90;101527.75;4972843;28;99511;-27
2023/07/14 10:30:54;;;;;;;2.03;1.10;;;;;;;20.51;57.19;101514.59;4974844;28;97886;-27
2023/07/14 10:33:25;;;;;;;1.30;0.80;;;;;;;20.47;58.04;101480.97;4973242;28;96737;-27
2023/07/14 10:36:01;;;;;;;2.42;1.38;;;;;;;20.52;57.45;101477.78;4974307;28;96997;-27
2023/07/14 10:38:32;;;;;;;1.95;0.77;;;;;;;20.52;57.37;101473.19;4972306;28;101307;-27
2023/07/14 10:41:07;;;;;;;2.03;0.83;;;;;;;20.53;56.95;101463.88;4972692;28;101143;-27
2023/07/14 10:43:45;;;;;;;2.28;1.20;;;;;;;20.63;57.83;101480.44;4975387;28;96582;-28
2023/07/14 10:46:16;;;;;;;3.20;1.10;;;;;;;20.56;57.08;101484.78;4977534;28;96692;-28
2023/07/14 10:48:47;;;;;;;1.73;1.10;;;;;;;20.48;56.69;101474.47;4975836;28;101763;-28
2023/07/14 10:51:29;;;;;;;3.10;1.00;;;;;;;20.54;57.66;101470.25;4976040;28;101314;-27
2023/07/14 10:54:12;;;;;;;1.77;0.93;;;;;;;20.64;56.37;101481.31;4977752;28;96521;-27
2023/07/14 10:56:43;;;;;;;3.55;1.20;;;;;;;20.54;56.04;101484.88;4976491;28;96845;-28
2023/07/14 10:59:39;;;;;;;1.90;0.93;;;;;;;20.56;56.73;101477.38;4975791;28;101214;-27
2023/07/14 11:02:16;;;;;;;1.73;0.90;;;;;;;20.61;56.93;101478.84;4977472;28;97826;-27
2023/07/14 11:04:48;;;;;;;2.38;1.00;;;;;;;20.62;56.91;101470.47;4975645;28;96657;-27
2023/07/14 11:07:25;;;;;;;3.40;1.08;;;;;;;20.55;56.25;101453.63;4976215;28;96662;-29
2023/07/14 11:09:50;;;;;;;2.10;1.27;;;;;;;20.53;56.77;101446.50;4975381;28;101236;-27
2023/07/14 11:12:36;;;;;;;3.00;1.15;;;;;;;20.70;55.97;101458.72;4977174;28;97770;-27
2023/07/14 11:15:01;;;;;;;2.22;1.15;;;;;;;20.70;56.10;101461.47;4977071;28;96791;-27
2023/07/14 11:17:42;;;;;;;1.75;1.13;;;;;;;20.79;56.12;101446.81;4977090;28;96870;-27
2023/07/14 11:20:30;;;;;;;5.10;1.40;;;;;;;21.21;56.01;101444.56;4975295;28;99199;-27
2023/07/14 11:23:31;;;;;;;3.53;1.45;;;;;;;21.59;54.95;101442.69;4975851;28;101636;-27
2023/07/14 11:26:15;;;;;;;2.97;1.03;;;;;;;21.68;53.44;101451.97;4977031;28;96562;-29
2023/07/14 11:29:04;;;;;;;5.97;1.30;;;;;;;21.84;53.34;101445.78;4975787;28;96826;-28
2023/07/14 11:31:36;;;;;;;3.25;1.50;;;;;;;22.06;53.96;101431.56;4974968;28;101058;-27
2023/07/14 11:34:16;;;;;;;3.97;1.73;;;;;;;22.18;51.43;101410.13;4975224;28;100711;-27
2023/07/14 11:37:14;;;;;;;2.78;1.35;;;;;;;22.37;52.86;101420.19;4975145;28;96781;-27